createdAt,value
2018-12-24T00:00:15.840Z,889.89
2018-12-24T00:01:15.816Z,889.85
2018-12-24T00:02:15.800Z,889.86
2018-12-24T00:03:15.787Z,889.90
2018-12-24T00:04:15.773Z,889.90
2018-12-24T00:05:15.762Z,889.88
2018-12-24T00:06:15.741Z,889.81
2018-12-24T00:07:15.719Z,889.85
2018-12-24T00:08:15.697Z,889.84
2018-12-24T00:09:15.690Z,889.78
2018-12-24T00:10:15.672Z,889.77
2018-12-24T00:11:15.666Z,889.71
2018-12-24T00:12:15.642Z,889.71
2018-12-24T00:13:15.630Z,889.65
2018-12-24T00:14:15.623Z,889.67
2018-12-24T00:15:15.604Z,889.65
2018-12-24T00:16:15.580Z,889.63
2018-12-24T00:17:15.566Z,889.63
2018-12-24T00:18:15.545Z,889.64
2018-12-24T00:19:15.529Z,889.68
2018-12-24T00:20:15.517Z,889.59
2018-12-24T00:21:15.495Z,889.56
2018-12-24T00:22:15.484Z,889.60
2018-12-24T00:23:15.458Z,889.64
2018-12-24T00:24:15.447Z,889.69
2018-12-24T00:25:15.431Z,889.59
2018-12-24T00:26:15.416Z,889.60
2018-12-24T00:27:15.400Z,889.62
2018-12-24T00:28:15.382Z,889.70
2018-12-24T00:29:15.370Z,889.73
2018-12-24T00:30:15.352Z,889.66
2018-12-24T00:31:15.346Z,889.66
2018-12-24T00:32:15.318Z,889.63
2018-12-24T00:33:15.302Z,889.63
2018-12-24T00:34:15.291Z,889.67
2018-12-24T00:35:15.271Z,889.69
2018-12-24T00:36:15.255Z,889.73
2018-12-24T00:37:15.246Z,889.75
2018-12-24T00:38:15.254Z,889.77
2018-12-24T00:39:15.206Z,889.73
2018-12-24T00:40:15.204Z,889.77
2018-12-24T00:41:15.184Z,889.76
2018-12-24T00:42:15.976Z,889.84
2018-12-24T00:43:15.193Z,889.85
2018-12-24T00:44:15.128Z,889.86
2018-12-24T00:45:15.113Z,889.77
2018-12-24T00:46:15.095Z,889.81
2018-12-24T00:47:15.087Z,889.82
2018-12-24T00:48:15.066Z,889.82
2018-12-24T00:49:15.058Z,889.78
2018-12-24T00:50:15.080Z,889.74
2018-12-24T00:51:15.018Z,889.69
2018-12-24T00:52:14.994Z,889.66
2018-12-24T00:53:14.981Z,889.67
2018-12-24T00:54:14.970Z,889.67
2018-12-24T00:55:14.949Z,889.61
2018-12-24T00:56:14.937Z,889.53
2018-12-24T00:57:14.921Z,889.47
2018-12-24T00:58:14.902Z,889.51
2018-12-24T00:59:14.893Z,889.58
2018-12-24T01:00:14.875Z,889.54
2018-12-24T01:01:14.857Z,889.46
2018-12-24T01:02:14.844Z,889.50
2018-12-24T01:03:14.846Z,889.50
2018-12-24T01:04:14.807Z,889.49
2018-12-24T01:05:14.819Z,889.43
2018-12-24T01:06:14.775Z,889.38
2018-12-24T01:07:14.764Z,889.43
2018-12-24T01:08:14.746Z,889.46
2018-12-24T01:09:14.769Z,889.49
2018-12-24T01:10:14.714Z,889.49
2018-12-24T01:11:14.702Z,889.45
2018-12-24T01:12:14.684Z,889.37
2018-12-24T01:13:14.666Z,889.37
2018-12-24T01:14:14.659Z,889.32
2018-12-24T01:15:14.641Z,889.34
2018-12-24T01:16:14.623Z,889.34
2018-12-24T01:17:14.609Z,889.35
2018-12-24T01:18:14.591Z,889.35
2018-12-24T01:19:14.567Z,889.44
2018-12-24T01:20:14.552Z,889.52
2018-12-24T01:21:14.535Z,889.54
2018-12-24T01:22:14.537Z,889.55
2018-12-24T01:23:14.519Z,889.53
2018-12-24T01:24:14.492Z,889.44
2018-12-24T01:25:14.476Z,889.45
2018-12-24T01:26:14.455Z,889.47
2018-12-24T01:27:14.439Z,889.49
2018-12-24T01:28:14.427Z,889.60
2018-12-24T01:29:14.418Z,889.58
2018-12-24T01:30:14.395Z,889.57
2018-12-24T01:31:14.380Z,889.49
2018-12-24T01:32:14.367Z,889.49
2018-12-24T01:33:14.436Z,889.49
2018-12-24T01:34:14.334Z,889.47
2018-12-24T01:35:14.312Z,889.45
2018-12-24T01:36:14.298Z,889.46
2018-12-24T01:37:14.279Z,889.38
2018-12-24T01:38:14.269Z,889.36
2018-12-24T01:39:14.247Z,889.38
2018-12-24T01:40:14.239Z,889.37
2018-12-24T01:41:14.221Z,889.36
2018-12-24T01:42:14.212Z,889.34
2018-12-24T01:43:14.182Z,889.31
2018-12-24T01:44:14.167Z,889.24
2018-12-24T01:45:14.153Z,889.25
2018-12-24T01:46:14.136Z,889.23
2018-12-24T01:47:14.131Z,889.23
2018-12-24T01:48:14.109Z,889.23
2018-12-24T01:49:14.089Z,889.26
2018-12-24T01:50:14.081Z,889.18
2018-12-24T01:51:14.057Z,889.14
2018-12-24T01:52:14.045Z,889.06
2018-12-24T01:53:14.029Z,889.08
2018-12-24T01:54:14.012Z,889.07
2018-12-24T01:55:13.988Z,889.03
2018-12-24T01:56:13.981Z,889.02
2018-12-24T01:57:13.962Z,888.96
2018-12-24T01:58:13.948Z,888.95
2018-12-24T01:59:13.932Z,888.86
2018-12-24T02:00:13.914Z,888.83
2018-12-24T02:01:13.898Z,888.82
2018-12-24T02:02:13.877Z,888.75
2018-12-24T02:03:13.863Z,888.70
2018-12-24T02:04:13.847Z,888.59
2018-12-24T02:05:13.837Z,888.55
2018-12-24T02:06:13.823Z,888.53
2018-12-24T02:07:13.815Z,888.51
2018-12-24T02:08:13.789Z,888.51
2018-12-24T02:09:13.771Z,888.46
2018-12-24T02:10:13.752Z,888.45
2018-12-24T02:11:13.740Z,888.39
2018-12-24T02:12:13.728Z,888.37
2018-12-24T02:13:13.703Z,888.37
2018-12-24T02:14:13.693Z,888.33
2018-12-24T02:15:13.666Z,888.25
2018-12-24T02:16:13.658Z,888.23
2018-12-24T02:17:13.640Z,888.19
2018-12-24T02:18:13.627Z,888.20
2018-12-24T02:19:13.607Z,888.16
2018-12-24T02:20:13.595Z,888.19
2018-12-24T02:21:13.577Z,888.22
2018-12-24T02:22:13.577Z,888.21
2018-12-24T02:23:13.547Z,888.20
2018-12-24T02:24:13.531Z,888.21
2018-12-24T02:25:13.513Z,888.19
2018-12-24T02:26:13.498Z,888.11
2018-12-24T02:27:13.483Z,888.14
2018-12-24T02:28:13.462Z,888.18
2018-12-24T02:29:13.452Z,888.22
2018-12-24T02:30:13.433Z,888.27
2018-12-24T02:31:13.417Z,888.30
2018-12-24T02:32:13.401Z,888.29
2018-12-24T02:33:13.383Z,888.34
2018-12-24T02:34:13.367Z,888.40
2018-12-24T02:35:13.359Z,888.36
2018-12-24T02:36:13.335Z,888.40
2018-12-24T02:37:13.321Z,888.42
2018-12-24T02:38:13.307Z,888.46
2018-12-24T02:39:13.289Z,888.48
2018-12-24T02:40:13.286Z,888.53
2018-12-24T02:41:13.253Z,888.51
2018-12-24T02:42:13.240Z,888.49
2018-12-24T02:43:13.227Z,888.50
2018-12-24T02:44:13.205Z,888.48
2018-12-24T02:45:13.192Z,888.49
2018-12-24T02:46:13.177Z,888.47
2018-12-24T02:47:13.162Z,888.53
2018-12-24T02:48:13.143Z,888.50
2018-12-24T02:49:13.130Z,888.53
2018-12-24T02:50:13.111Z,888.44
2018-12-24T02:51:13.098Z,888.43
2018-12-24T02:52:13.080Z,888.37
2018-12-24T02:53:13.064Z,888.40
2018-12-24T02:54:13.046Z,888.39
2018-12-24T02:55:13.033Z,888.44
2018-12-24T02:56:13.026Z,888.42
2018-12-24T02:57:12.993Z,888.42
2018-12-24T02:58:12.996Z,888.36
2018-12-24T02:59:12.967Z,888.35
2018-12-24T03:00:12.947Z,888.37
2018-12-24T03:01:12.934Z,888.37
2018-12-24T03:02:12.914Z,888.33
2018-12-24T03:03:12.901Z,888.28
2018-12-24T03:04:12.883Z,888.30
2018-12-24T03:05:12.872Z,888.32
2018-12-24T03:06:12.860Z,888.32
2018-12-24T03:07:12.857Z,888.36
2018-12-24T03:08:12.829Z,888.40
2018-12-24T03:09:12.816Z,888.35
2018-12-24T03:10:12.785Z,888.33
2018-12-24T03:11:12.779Z,888.29
2018-12-24T03:12:12.753Z,888.25
2018-12-24T03:13:12.744Z,888.22
2018-12-24T03:14:12.723Z,888.23
2018-12-24T03:15:12.714Z,888.19
2018-12-24T03:16:12.705Z,888.18
2018-12-24T03:17:12.682Z,888.14
2018-12-24T03:18:12.658Z,888.06
2018-12-24T03:19:12.647Z,888.06
2018-12-24T03:20:12.635Z,888.10
2018-12-24T03:21:12.608Z,888.12
2018-12-24T03:22:12.600Z,888.08
2018-12-24T03:23:12.586Z,888.08
2018-12-24T03:24:12.565Z,888.10
2018-12-24T03:25:12.566Z,888.11
2018-12-24T03:26:12.531Z,888.13
2018-12-24T03:27:12.519Z,888.15
2018-12-24T03:28:12.497Z,888.10
2018-12-24T03:29:12.489Z,888.11
2018-12-24T03:30:12.490Z,888.14
2018-12-24T03:31:12.462Z,888.15
2018-12-24T03:32:12.444Z,888.17
2018-12-24T03:33:12.426Z,888.10
2018-12-24T03:34:12.405Z,888.13
2018-12-24T03:35:12.392Z,888.11
2018-12-24T03:36:12.373Z,888.08
2018-12-24T03:37:12.349Z,888.02
2018-12-24T03:38:12.375Z,887.98
2018-12-24T03:39:12.327Z,888.05
2018-12-24T03:40:12.315Z,888.00
2018-12-24T03:41:12.304Z,887.98
2018-12-24T03:42:12.277Z,887.94
2018-12-24T03:43:13.156Z,887.95
2018-12-24T03:44:12.245Z,887.87
2018-12-24T03:45:12.246Z,887.80
2018-12-24T03:46:12.206Z,887.72
2018-12-24T03:47:12.206Z,887.63
2018-12-24T03:48:12.184Z,887.56
2018-12-24T03:49:12.167Z,887.54
2018-12-24T03:50:12.155Z,887.51
2018-12-24T03:51:12.132Z,887.44
2018-12-24T03:52:12.129Z,887.38
2018-12-24T03:53:12.101Z,887.34
2018-12-24T03:54:12.090Z,887.37
2018-12-24T03:55:12.071Z,887.37
2018-12-24T03:56:12.065Z,887.33
2018-12-24T03:57:12.034Z,887.27
2018-12-24T03:58:12.027Z,887.28
2018-12-24T03:59:12.009Z,887.20
2018-12-24T04:00:11.995Z,887.20
2018-12-24T04:01:11.971Z,887.20
2018-12-24T04:02:11.959Z,887.19
2018-12-24T04:03:11.937Z,887.22
2018-12-24T04:04:11.922Z,887.24
2018-12-24T04:05:11.909Z,887.25
2018-12-24T04:06:11.889Z,887.22
2018-12-24T04:07:11.897Z,887.21
2018-12-24T04:08:11.856Z,887.16
2018-12-24T04:09:11.849Z,887.14
2018-12-24T04:10:11.832Z,887.17
2018-12-24T04:11:11.819Z,887.20
2018-12-24T04:12:11.796Z,887.21
2018-12-24T04:13:11.780Z,887.28
2018-12-24T04:14:11.768Z,887.29
2018-12-24T04:15:11.745Z,887.29
2018-12-24T04:16:11.732Z,887.39
2018-12-24T04:17:11.712Z,887.41
2018-12-24T04:18:11.715Z,887.44
2018-12-24T04:19:11.692Z,887.41
2018-12-24T04:20:11.663Z,887.50
2018-12-24T04:21:11.649Z,887.54
2018-12-24T04:22:11.628Z,887.57
2018-12-24T04:23:11.614Z,887.56
2018-12-24T04:24:11.594Z,887.53
2018-12-24T04:25:11.592Z,887.53
2018-12-24T04:26:11.572Z,887.49
2018-12-24T04:27:11.556Z,887.49
2018-12-24T04:28:11.537Z,887.51
2018-12-24T04:29:11.519Z,887.56
2018-12-24T04:30:11.504Z,887.59
2018-12-24T04:31:11.485Z,887.59
2018-12-24T04:32:11.474Z,887.55
2018-12-24T04:33:11.455Z,887.61
2018-12-24T04:34:11.446Z,887.63
2018-12-24T04:35:11.427Z,887.57
2018-12-24T04:36:11.432Z,887.56
2018-12-24T04:37:11.396Z,887.54
2018-12-24T04:38:11.375Z,887.43
2018-12-24T04:39:11.362Z,887.34
2018-12-24T04:40:11.348Z,887.32
2018-12-24T04:41:11.330Z,887.22
2018-12-24T04:42:11.317Z,887.20
2018-12-24T04:43:11.295Z,887.19
2018-12-24T04:44:11.280Z,887.19
2018-12-24T04:45:11.265Z,887.30
2018-12-24T04:46:11.260Z,887.38
2018-12-24T04:47:11.231Z,887.43
2018-12-24T04:48:11.215Z,887.45
2018-12-24T04:49:11.196Z,887.34
2018-12-24T04:50:11.189Z,887.31
2018-12-24T04:51:11.164Z,887.31
2018-12-24T04:52:11.144Z,887.33
2018-12-24T04:53:11.133Z,887.39
2018-12-24T04:54:11.115Z,887.39
2018-12-24T04:55:11.101Z,887.33
2018-12-24T04:56:11.088Z,887.18
2018-12-24T04:57:11.063Z,887.17
2018-12-24T04:58:11.048Z,887.14
2018-12-24T04:59:11.039Z,887.09
2018-12-24T05:00:11.017Z,886.97
2018-12-24T05:01:11.000Z,886.91
2018-12-24T05:02:10.997Z,886.78
2018-12-24T05:03:10.967Z,886.74
2018-12-24T05:04:10.955Z,886.60
2018-12-24T05:05:10.947Z,886.54
2018-12-24T05:06:10.922Z,886.47
2018-12-24T05:07:10.897Z,886.37
2018-12-24T05:08:10.884Z,886.30
2018-12-24T05:09:10.871Z,886.26
2018-12-24T05:10:10.853Z,886.26
2018-12-24T05:11:10.851Z,886.33
2018-12-24T05:12:10.835Z,886.49
2018-12-24T05:13:10.807Z,886.58
2018-12-24T05:14:10.796Z,886.54
2018-12-24T05:15:10.774Z,886.58
2018-12-24T05:16:10.756Z,886.60
2018-12-24T05:17:10.749Z,886.59
2018-12-24T05:18:10.723Z,886.60
2018-12-24T05:19:10.712Z,886.62
2018-12-24T05:20:10.690Z,886.77
2018-12-24T05:21:10.676Z,886.91
2018-12-24T05:22:10.683Z,887.00
2018-12-24T05:23:10.639Z,886.94
2018-12-24T05:24:10.625Z,886.92
2018-12-24T05:25:10.613Z,886.93
2018-12-24T05:26:10.594Z,886.88
2018-12-24T05:27:10.575Z,887.00
2018-12-24T05:28:10.557Z,887.09
2018-12-24T05:29:10.543Z,887.13
2018-12-24T05:30:10.538Z,887.10
2018-12-24T05:31:10.512Z,887.11
2018-12-24T05:32:10.488Z,887.03
2018-12-24T05:33:10.480Z,886.99
2018-12-24T05:34:10.487Z,886.99
2018-12-24T05:35:10.445Z,887.01
2018-12-24T05:36:10.427Z,886.96
2018-12-24T05:37:10.415Z,886.88
2018-12-24T05:38:10.397Z,886.90
2018-12-24T05:39:10.380Z,886.93
2018-12-24T05:40:10.363Z,886.95
2018-12-24T05:41:10.352Z,886.97
2018-12-24T05:42:10.330Z,886.96
2018-12-24T05:43:10.312Z,886.88
2018-12-24T05:44:10.303Z,886.96
2018-12-24T05:45:10.286Z,886.99
2018-12-24T05:46:10.282Z,887.05
2018-12-24T05:47:10.246Z,887.08
2018-12-24T05:48:10.236Z,887.10
2018-12-24T05:49:10.212Z,887.11
2018-12-24T05:50:10.198Z,887.06
2018-12-24T05:51:10.176Z,887.08
2018-12-24T05:52:10.166Z,887.12
2018-12-24T05:53:10.151Z,887.14
2018-12-24T05:54:10.135Z,887.18
2018-12-24T05:55:10.115Z,887.15
2018-12-24T05:56:10.097Z,887.16
2018-12-24T05:57:10.084Z,887.10
2018-12-24T05:58:10.068Z,887.13
2018-12-24T05:59:10.053Z,887.09
2018-12-24T06:00:10.033Z,887.16
2018-12-24T06:01:10.030Z,887.28
2018-12-24T06:02:10.006Z,887.34
2018-12-24T06:03:09.992Z,887.31
2018-12-24T06:04:09.974Z,887.19
2018-12-24T06:05:09.952Z,887.16
2018-12-24T06:06:09.945Z,887.20
2018-12-24T06:07:09.920Z,887.24
2018-12-24T06:08:09.969Z,887.18
2018-12-24T06:09:09.884Z,887.12
2018-12-24T06:10:09.883Z,887.23
2018-12-24T06:11:09.850Z,887.29
2018-12-24T06:12:09.839Z,887.07
2018-12-24T06:13:09.825Z,887.04
2018-12-24T06:14:09.808Z,887.10
2018-12-24T06:15:09.789Z,887.14
2018-12-24T06:16:09.775Z,887.12
2018-12-24T06:17:09.755Z,887.06
2018-12-24T06:18:09.736Z,886.96
2018-12-24T06:19:09.730Z,886.91
2018-12-24T06:20:09.707Z,886.93
2018-12-24T06:21:09.692Z,887.07
2018-12-24T06:22:09.673Z,887.05
2018-12-24T06:23:09.662Z,887.00
2018-12-24T06:24:09.640Z,886.96
2018-12-24T06:25:09.634Z,886.85
2018-12-24T06:26:09.611Z,886.68
2018-12-24T06:27:09.585Z,886.71
2018-12-24T06:28:09.573Z,886.70
2018-12-24T06:29:09.555Z,886.68
2018-12-24T06:30:09.542Z,886.72
2018-12-24T06:31:09.518Z,886.79
2018-12-24T06:32:09.503Z,886.89
2018-12-24T06:33:09.490Z,886.92
2018-12-24T06:34:09.487Z,886.89
2018-12-24T06:35:09.455Z,886.91
2018-12-24T06:36:09.443Z,886.93
2018-12-24T06:37:09.426Z,886.84
2018-12-24T06:38:09.403Z,886.83
2018-12-24T06:39:09.401Z,886.87
2018-12-24T06:40:09.371Z,886.98
2018-12-24T06:41:09.367Z,887.02
2018-12-24T06:42:09.340Z,887.09
2018-12-24T06:43:09.326Z,887.23
2018-12-24T06:44:09.308Z,887.31
2018-12-24T06:45:09.286Z,887.25
2018-12-24T06:46:09.286Z,887.18
2018-12-24T06:47:09.254Z,887.12
2018-12-24T06:48:09.240Z,887.12
2018-12-24T06:49:09.243Z,887.09
2018-12-24T06:50:09.205Z,887.15
2018-12-24T06:51:09.195Z,887.24
2018-12-24T06:52:09.175Z,887.27
2018-12-24T06:53:09.155Z,887.28
2018-12-24T06:54:09.145Z,887.25
2018-12-24T06:55:09.124Z,887.26
2018-12-24T06:56:09.119Z,887.43
2018-12-24T06:57:09.087Z,887.59
2018-12-24T06:58:09.076Z,887.73
2018-12-24T06:59:09.058Z,887.73
2018-12-24T07:00:09.045Z,887.75
2018-12-24T07:01:09.026Z,887.84
2018-12-24T07:02:09.009Z,887.92
2018-12-24T07:03:08.989Z,887.93
2018-12-24T07:04:08.977Z,887.99
2018-12-24T07:05:08.957Z,888.09
2018-12-24T07:06:08.948Z,888.17
2018-12-24T07:07:08.939Z,888.34
2018-12-24T07:08:08.906Z,888.40
2018-12-24T07:09:08.900Z,888.53
2018-12-24T07:10:08.876Z,888.66
2018-12-24T07:11:08.872Z,888.74
2018-12-24T07:12:08.847Z,888.83
2018-12-24T07:13:08.824Z,888.85
2018-12-24T07:14:15.392Z,888.98
2018-12-24T07:15:08.800Z,889.04
2018-12-24T07:16:08.787Z,889.02
2018-12-24T07:17:08.765Z,889.10
2018-12-24T07:18:08.743Z,889.05
2018-12-24T07:19:08.735Z,889.09
2018-12-24T07:20:08.705Z,889.20
2018-12-24T07:21:08.695Z,889.08
2018-12-24T07:22:08.675Z,889.12
2018-12-24T07:23:08.660Z,889.04
2018-12-24T07:24:08.648Z,889.04
2018-12-24T07:25:08.628Z,889.05
2018-12-24T07:26:09.129Z,889.11
2018-12-24T07:27:08.597Z,889.13
2018-12-24T07:28:08.583Z,889.16
2018-12-24T07:29:08.570Z,889.17
2018-12-24T07:30:08.550Z,889.21
2018-12-24T07:31:08.531Z,889.21
2018-12-24T07:32:08.515Z,889.25
2018-12-24T07:33:08.493Z,889.32
2018-12-24T07:34:08.479Z,889.42
2018-12-24T07:35:08.460Z,889.48
2018-12-24T07:36:08.444Z,889.46
2018-12-24T07:37:08.438Z,889.46
2018-12-24T07:38:08.421Z,889.56
2018-12-24T07:39:08.395Z,889.60
2018-12-24T07:40:08.383Z,889.67
2018-12-24T07:41:08.361Z,889.71
2018-12-24T07:42:08.341Z,889.76
2018-12-24T07:43:08.332Z,889.70
2018-12-24T07:44:08.317Z,889.75
2018-12-24T07:45:08.297Z,889.71
2018-12-24T07:46:08.278Z,889.67
2018-12-24T07:47:08.262Z,889.74
2018-12-24T07:48:08.248Z,889.74
2018-12-24T07:49:08.226Z,889.83
2018-12-24T07:50:08.216Z,889.85
2018-12-24T07:51:08.196Z,889.88
2018-12-24T07:52:08.182Z,889.97
2018-12-24T07:53:08.168Z,889.98
2018-12-24T07:54:08.150Z,889.92
2018-12-24T07:55:08.136Z,889.96
2018-12-24T07:56:08.111Z,889.97
2018-12-24T07:57:08.095Z,889.99
2018-12-24T07:58:08.113Z,890.02
2018-12-24T07:59:08.155Z,890.05
2018-12-24T08:00:08.048Z,890.07
2018-12-24T08:01:08.034Z,890.17
2018-12-24T08:02:08.022Z,890.32
2018-12-24T08:03:08.003Z,890.41
2018-12-24T08:04:07.998Z,890.54
2018-12-24T08:05:07.965Z,890.60
2018-12-24T08:06:07.942Z,890.62
2018-12-24T08:07:07.935Z,890.59
2018-12-24T08:08:07.917Z,890.55
2018-12-24T08:09:07.899Z,890.57
2018-12-24T08:10:07.888Z,890.63
2018-12-24T08:11:07.872Z,890.60
2018-12-24T08:12:07.852Z,890.63
2018-12-24T08:13:07.850Z,890.59
2018-12-24T08:14:07.830Z,890.58
2018-12-24T08:15:07.796Z,890.61
2018-12-24T08:16:07.782Z,890.55
2018-12-24T08:17:07.776Z,890.60
2018-12-24T08:18:07.751Z,890.62
2018-12-24T08:19:07.730Z,890.60
2018-12-24T08:20:07.717Z,890.61
2018-12-24T08:21:07.687Z,890.69
2018-12-24T08:22:07.693Z,890.72
2018-12-24T08:23:07.661Z,890.72
2018-12-24T08:24:07.654Z,890.68
2018-12-24T08:25:07.628Z,890.66
2018-12-24T08:26:07.616Z,890.60
2018-12-24T08:27:07.602Z,890.68
2018-12-24T08:28:07.579Z,890.69
2018-12-24T08:29:07.563Z,890.72
2018-12-24T08:30:07.552Z,890.74
2018-12-24T08:31:07.533Z,890.78
2018-12-24T08:32:07.518Z,890.84
2018-12-24T08:33:07.492Z,890.96
2018-12-24T08:34:07.481Z,890.99
2018-12-24T08:35:07.471Z,891.06
2018-12-24T08:36:07.449Z,891.10
2018-12-24T08:37:07.432Z,891.09
2018-12-24T08:38:07.414Z,891.10
2018-12-24T08:39:07.405Z,891.09
2018-12-24T08:40:07.384Z,891.07
2018-12-24T08:41:07.364Z,891.16
2018-12-24T08:42:07.376Z,891.16
2018-12-24T08:43:07.325Z,891.25
2018-12-24T08:44:07.311Z,891.29
2018-12-24T08:45:07.300Z,891.34
2018-12-24T08:46:07.281Z,891.37
2018-12-24T08:47:07.263Z,891.41
2018-12-24T08:48:07.253Z,891.50
2018-12-24T08:49:07.236Z,891.50
2018-12-24T08:50:07.206Z,891.51
2018-12-24T08:51:07.190Z,891.53
2018-12-24T08:52:07.178Z,891.52
2018-12-24T08:53:07.164Z,891.60
2018-12-24T08:54:07.146Z,891.62
2018-12-24T08:55:07.132Z,891.61
2018-12-24T08:56:07.116Z,891.68
2018-12-24T08:57:07.146Z,891.71
2018-12-24T08:58:07.085Z,891.79
2018-12-24T08:59:07.061Z,891.84
2018-12-24T09:00:07.060Z,891.91
2018-12-24T09:01:07.030Z,891.98
2018-12-24T09:02:07.007Z,892.00
2018-12-24T09:03:06.994Z,891.98
2018-12-24T09:04:06.984Z,891.96
2018-12-24T09:05:06.961Z,891.97
2018-12-24T09:06:06.948Z,892.01
2018-12-24T09:07:06.930Z,892.11
2018-12-24T09:08:06.910Z,892.14
2018-12-24T09:09:06.916Z,892.22
2018-12-24T09:10:06.878Z,892.20
2018-12-24T09:11:06.859Z,892.20
2018-12-24T09:12:06.840Z,892.23
2018-12-24T09:13:06.829Z,892.23
2018-12-24T09:14:06.814Z,892.30
2018-12-24T09:15:06.794Z,892.24
2018-12-24T09:16:06.777Z,892.20
2018-12-24T09:17:06.763Z,892.19
2018-12-24T09:18:06.737Z,892.17
2018-12-24T09:19:06.726Z,892.18
2018-12-24T09:20:06.706Z,892.32
2018-12-24T09:21:06.697Z,892.35
2018-12-24T09:22:06.687Z,892.42
2018-12-24T09:23:06.661Z,892.40
2018-12-24T09:24:06.643Z,892.37
2018-12-24T09:25:06.645Z,892.37
2018-12-24T09:26:06.601Z,892.44
2018-12-24T09:27:06.595Z,892.43
2018-12-24T09:28:06.571Z,892.49
2018-12-24T09:29:06.561Z,892.45
2018-12-24T09:30:06.546Z,892.50
2018-12-24T09:31:06.521Z,892.55
2018-12-24T09:32:06.509Z,892.60
2018-12-24T09:33:06.494Z,892.63
2018-12-24T09:34:06.478Z,892.63
2018-12-24T09:35:06.454Z,892.73
2018-12-24T09:36:06.442Z,892.73
2018-12-24T09:37:06.419Z,892.74
2018-12-24T09:38:06.412Z,892.77
2018-12-24T09:39:06.390Z,892.77
2018-12-24T09:40:06.385Z,892.73
2018-12-24T09:41:06.358Z,892.70
2018-12-24T09:42:06.337Z,892.66
2018-12-24T09:43:06.324Z,892.73
2018-12-24T09:44:06.326Z,892.75
2018-12-24T09:45:06.287Z,892.77
2018-12-24T09:46:06.264Z,892.78
2018-12-24T09:47:06.276Z,892.87
2018-12-24T09:48:06.236Z,892.87
2018-12-24T09:49:06.218Z,892.90
2018-12-24T09:50:06.206Z,892.94
2018-12-24T09:51:06.182Z,892.95
2018-12-24T09:52:06.169Z,893.02
2018-12-24T09:53:06.152Z,893.06
2018-12-24T09:54:06.143Z,893.05
2018-12-24T09:55:06.144Z,893.10
2018-12-24T09:56:06.103Z,893.10
2018-12-24T09:57:06.085Z,893.06
2018-12-24T09:58:06.077Z,893.04
2018-12-24T09:59:06.061Z,893.05
2018-12-24T10:00:06.036Z,892.97
2018-12-24T10:01:06.017Z,893.04
2018-12-24T10:02:06.002Z,893.11
2018-12-24T10:03:05.976Z,893.16
2018-12-24T10:04:05.967Z,893.16
2018-12-24T10:05:05.950Z,893.12
2018-12-24T10:06:05.931Z,893.14
2018-12-24T10:07:05.919Z,893.21
2018-12-24T10:08:05.901Z,893.23
2018-12-24T10:09:05.873Z,893.24
2018-12-24T10:10:05.866Z,893.29
2018-12-24T10:11:05.849Z,893.25
2018-12-24T10:12:05.828Z,893.29
2018-12-24T10:13:05.808Z,893.34
2018-12-24T10:14:05.795Z,893.39
2018-12-24T10:15:08.196Z,893.45
2018-12-24T10:16:05.760Z,893.50
2018-12-24T10:17:05.740Z,893.53
2018-12-24T10:18:05.719Z,893.51
2018-12-24T10:19:05.712Z,893.49
2018-12-24T10:20:05.690Z,893.43
2018-12-24T10:21:05.675Z,893.44
2018-12-24T10:22:05.656Z,893.45
2018-12-24T10:23:05.646Z,893.50
2018-12-24T10:24:05.631Z,893.46
2018-12-24T10:25:05.601Z,893.44
2018-12-24T10:26:05.592Z,893.51
2018-12-24T10:27:05.577Z,893.53
2018-12-24T10:28:05.550Z,893.59
2018-12-24T10:29:05.546Z,893.62
2018-12-24T10:30:05.512Z,893.60
2018-12-24T10:31:05.495Z,893.56
2018-12-24T10:32:05.499Z,893.54
2018-12-24T10:33:05.466Z,893.52
2018-12-24T10:34:05.450Z,893.51
2018-12-24T10:35:05.432Z,893.53
2018-12-24T10:36:05.423Z,893.55
2018-12-24T10:37:05.394Z,893.53
2018-12-24T10:38:05.379Z,893.55
2018-12-24T10:39:05.368Z,893.53
2018-12-24T10:40:05.346Z,893.51
2018-12-24T10:41:05.327Z,893.58
2018-12-24T10:42:05.308Z,893.58
2018-12-24T10:43:05.299Z,893.60
2018-12-24T10:44:05.286Z,893.58
2018-12-24T10:45:05.271Z,893.59
2018-12-24T10:46:05.248Z,893.63
2018-12-24T10:47:05.221Z,893.67
2018-12-24T10:48:05.205Z,893.71
2018-12-24T10:49:05.200Z,893.66
2018-12-24T10:50:05.176Z,893.62
2018-12-24T10:51:05.161Z,893.57
2018-12-24T10:52:05.144Z,893.67
2018-12-24T10:53:05.121Z,893.70
2018-12-24T10:54:05.105Z,893.78
2018-12-24T10:55:05.093Z,893.75
2018-12-24T10:56:05.075Z,893.72
2018-12-24T10:57:05.056Z,893.66
2018-12-24T10:58:05.036Z,893.68
2018-12-24T10:59:05.029Z,893.62
2018-12-24T11:00:05.016Z,893.60
2018-12-24T11:01:04.986Z,893.55
2018-12-24T11:02:04.983Z,893.52
2018-12-24T11:03:04.953Z,893.50
2018-12-24T11:04:04.940Z,893.47
2018-12-24T11:05:04.920Z,893.45
2018-12-24T11:06:04.896Z,893.43
2018-12-24T11:07:04.882Z,893.36
2018-12-24T11:08:04.872Z,893.34
2018-12-24T11:09:04.852Z,893.30
2018-12-24T11:10:04.828Z,893.30
2018-12-24T11:11:04.814Z,893.34
2018-12-24T11:12:04.804Z,893.34
2018-12-24T11:13:04.780Z,893.31
2018-12-24T11:14:04.827Z,893.32
2018-12-24T11:15:04.747Z,893.31
2018-12-24T11:16:04.739Z,893.39
2018-12-24T11:17:04.713Z,893.41
2018-12-24T11:18:04.696Z,893.45
2018-12-24T11:19:04.684Z,893.42
2018-12-24T11:20:04.674Z,893.41
2018-12-24T11:21:04.644Z,893.40
2018-12-24T11:22:04.631Z,893.36
2018-12-24T11:23:04.619Z,893.35
2018-12-24T11:24:04.602Z,893.36
2018-12-24T11:25:04.623Z,893.37
2018-12-24T11:26:04.566Z,893.39
2018-12-24T11:27:04.547Z,893.41
2018-12-24T11:28:04.541Z,893.44
2018-12-24T11:29:05.375Z,893.42
2018-12-24T11:30:04.510Z,893.47
2018-12-24T11:31:04.483Z,893.46
2018-12-24T11:32:04.465Z,893.41
2018-12-24T11:33:04.448Z,893.38
2018-12-24T11:34:04.437Z,893.34
2018-12-24T11:35:04.423Z,893.32
2018-12-24T11:36:04.405Z,893.31
2018-12-24T11:37:04.389Z,893.34
2018-12-24T11:38:04.365Z,893.37
2018-12-24T11:39:04.347Z,893.37
2018-12-24T11:40:04.337Z,893.36
2018-12-24T11:41:04.313Z,893.37
2018-12-24T11:42:04.305Z,893.36
2018-12-24T11:43:04.284Z,893.39
2018-12-24T11:44:04.272Z,893.38
2018-12-24T11:45:04.251Z,893.41
2018-12-24T11:46:04.242Z,893.46
2018-12-24T11:47:04.218Z,893.44
2018-12-24T11:48:04.204Z,893.47
2018-12-24T11:49:04.192Z,893.46
2018-12-24T11:50:04.180Z,893.51
2018-12-24T11:51:04.151Z,893.52
2018-12-24T11:52:04.140Z,893.51
2018-12-24T11:53:04.121Z,893.49
2018-12-24T11:54:04.109Z,893.53
2018-12-24T11:55:04.099Z,893.49
2018-12-24T11:56:04.077Z,893.53
2018-12-24T11:57:04.064Z,893.53
2018-12-24T11:58:04.050Z,893.58
2018-12-24T11:59:04.028Z,893.58
2018-12-24T12:00:04.011Z,893.56
2018-12-24T12:01:03.999Z,893.50
2018-12-24T12:02:09.997Z,893.50
2018-12-24T12:03:03.962Z,893.47
2018-12-24T12:04:03.963Z,893.49
2018-12-24T12:05:03.934Z,893.48
2018-12-24T12:06:03.918Z,893.50
2018-12-24T12:07:03.901Z,893.54
2018-12-24T12:08:03.883Z,893.54
2018-12-24T12:09:03.867Z,893.57
2018-12-24T12:10:03.854Z,893.55
2018-12-24T12:11:03.838Z,893.57
2018-12-24T12:12:03.818Z,893.54
2018-12-24T12:13:03.812Z,893.58
2018-12-24T12:14:03.789Z,893.61
2018-12-24T12:15:03.774Z,893.64
2018-12-24T12:16:03.762Z,893.69
2018-12-24T12:17:03.746Z,893.69
2018-12-24T12:18:03.725Z,893.71
2018-12-24T12:19:03.711Z,893.70
2018-12-24T12:20:03.689Z,893.69
2018-12-24T12:21:03.680Z,893.72
2018-12-24T12:22:03.665Z,893.73
2018-12-24T12:23:03.642Z,893.75
2018-12-24T12:24:03.640Z,893.72
2018-12-24T12:25:03.614Z,893.73
2018-12-24T12:26:03.604Z,893.72
2018-12-24T12:27:03.633Z,893.70
2018-12-24T12:28:03.573Z,893.72